Time;durP1;ratioP1;P1;durP2;ratioP2;P2;SDS_P1;SDS_P2;PMS_P1;PMS_P2;Temp;Humidity;BMP_temperature;BMP_pressure;BME280_temperature;BME280_humidity;BME280_pressure;Samples;Min_cycle;Max_cycle;Signal;HPM_P1;HPM_P2
2021/10/31 00:00:42;;;;;;;10.75;6.63;;;12.10;99.90;;;;;;5088893;28;20497;-49
2021/10/31 00:03:07;;;;;;;10.13;7.70;;;12.10;99.90;;;;;;5089218;28;20093;-49
2021/10/31 00:05:33;;;;;;;10.93;7.53;;;12.10;99.90;;;;;;5088940;28;20107;-48
2021/10/31 00:07:58;;;;;;;12.02;6.93;;;12.20;99.90;;;;;;5087966;28;20032;-48
2021/10/31 00:10:24;;;;;;;13.48;7.30;;;12.20;99.90;;;;;;5088910;28;20028;-47
2021/10/31 00:12:50;;;;;;;9.95;6.43;;;12.20;99.90;;;;;;5085597;28;20066;-50
2021/10/31 00:15:16;;;;;;;10.93;7.15;;;12.20;99.90;;;;;;5087785;28;20273;-50
2021/10/31 00:17:41;;;;;;;9.70;6.80;;;12.30;99.90;;;;;;5087700;28;20025;-48
2021/10/31 00:20:08;;;;;;;11.48;7.15;;;12.40;99.90;;;;;;5088132;28;20024;-50
2021/10/31 00:22:33;;;;;;;10.18;7.50;;;12.40;99.90;;;;;;5076013;28;20482;-48
2021/10/31 00:24:59;;;;;;;10.38;7.18;;;12.40;99.90;;;;;;5082353;28;20032;-49
2021/10/31 00:27:24;;;;;;;10.82;6.55;;;12.40;99.90;;;;;;5091351;28;20482;-49
2021/10/31 00:29:50;;;;;;;10.98;7.13;;;12.40;99.90;;;;;;5091413;28;20027;-51
2021/10/31 00:32:15;;;;;;;10.57;6.88;;;12.40;99.90;;;;;;5092384;28;20059;-48
2021/10/31 00:34:41;;;;;;;15.82;7.32;;;12.50;99.90;;;;;;5090838;28;20482;-50
2021/10/31 00:37:07;;;;;;;10.45;7.47;;;12.50;99.90;;;;;;5091540;28;20035;-51
2021/10/31 00:39:32;;;;;;;10.57;6.72;;;12.50;99.90;;;;;;5092051;28;20040;-51
2021/10/31 00:41:58;;;;;;;11.00;6.78;;;12.50;99.90;;;;;;5091709;28;20605;-48
2021/10/31 00:44:23;;;;;;;9.98;7.30;;;12.50;99.90;;;;;;5092193;28;20027;-50
2021/10/31 00:46:49;;;;;;;10.00;7.85;;;12.50;99.90;;;;;;5092602;28;20082;-50
2021/10/31 00:49:15;;;;;;;10.85;7.43;;;12.50;99.90;;;;;;5092157;28;20028;-48
2021/10/31 00:51:41;;;;;;;8.82;6.63;;;12.50;99.90;;;;;;5078284;28;20398;-48
2021/10/31 00:54:07;;;;;;;10.40;7.05;;;12.50;99.90;;;;;;5082555;28;20454;-47
2021/10/31 00:56:34;;;;;;;11.48;7.32;;;12.60;99.90;;;;;;5091840;28;20025;-51
2021/10/31 00:58:59;;;;;;;11.60;8.13;;;12.60;99.90;;;;;;5091016;28;20054;-48
2021/10/31 01:01:27;;;;;;;10.85;7.15;;;12.60;99.90;;;;;;5091384;28;20012;-50
2021/10/31 01:03:54;;;;;;;10.32;6.25;;;12.60;99.90;;;;;;5091280;28;20111;-49
2021/10/31 01:06:50;;;;;;;10.32;7.28;;;12.60;99.90;;;;;;5091104;28;20020;-52
2021/10/31 01:09:39;;;;;;;14.80;8.45;;;12.50;99.90;;;;;;5090304;28;20031;-51
2021/10/31 01:12:25;;;;;;;12.35;8.57;;;12.60;99.90;;;;;;5091044;28;20409;-48
2021/10/31 01:14:51;;;;;;;9.52;7.35;;;12.70;99.90;;;;;;5091618;28;20028;-51
2021/10/31 01:17:33;;;;;;;10.60;7.93;;;12.70;99.90;;;;;;5090808;28;20020;-50
2021/10/31 01:20:13;;;;;;;12.75;8.70;;;12.70;99.90;;;;;;5091220;28;20089;-50
2021/10/31 01:23:00;;;;;;;11.63;9.15;;;12.80;99.90;;;;;;5077931;28;20080;-50
2021/10/31 01:26:00;;;;;;;14.52;8.38;;;12.80;99.90;;;;;;5087044;28;20016;-51
2021/10/31 01:28:52;;;;;;;13.23;9.15;;;12.80;99.90;;;;;;5082935;28;20028;-50
2021/10/31 01:31:36;;;;;;;12.90;8.52;;;12.90;99.90;;;;;;5091386;28;20056;-48
2021/10/31 01:34:23;;;;;;;15.63;9.02;;;12.90;99.90;;;;;;5091578;28;20020;-50
2021/10/31 01:36:59;;;;;;;14.48;9.63;;;12.90;99.90;;;;;;5089742;28;20032;-48
2021/10/31 01:39:50;;;;;;;12.48;8.73;;;13.00;99.90;;;;;;5091899;28;20024;-49
2021/10/31 01:42:36;;;;;;;12.95;9.95;;;13.00;99.90;;;;;;5091402;28;20115;-48
2021/10/31 01:45:14;;;;;;;13.43;9.75;;;13.10;99.90;;;;;;5091382;28;20350;-48
2021/10/31 01:47:47;;;;;;;17.35;9.57;;;13.10;99.90;;;;;;5089298;28;20067;-49
2021/10/31 01:50:37;;;;;;;14.52;8.88;;;13.20;99.90;;;;;;5091043;28;20227;-48
2021/10/31 01:53:11;;;;;;;13.38;9.07;;;13.20;99.90;;;;;;5074420;28;20025;-49
2021/10/31 01:55:43;;;;;;;12.65;9.52;;;13.10;99.90;;;;;;5088393;28;20027;-51
2021/10/31 01:58:11;;;;;;;12.20;8.90;;;13.10;99.90;;;;;;5089081;28;20020;-48
2021/10/31 02:00:38;;;;;;;12.50;9.30;;;13.10;99.90;;;;;;5090867;28;20043;-50
2021/10/31 02:03:07;;;;;;;11.98;8.77;;;13.10;99.90;;;;;;5090677;28;20075;-50
2021/10/31 02:05:37;;;;;;;16.00;10.48;;;13.10;99.90;;;;;;5090443;28;20470;-48
2021/10/31 02:08:06;;;;;;;12.73;9.10;;;13.10;99.90;;;;;;5088738;28;20429;-48
2021/10/31 02:10:33;;;;;;;14.63;9.48;;;13.10;99.90;;;;;;5089409;28;20100;-50
2021/10/31 02:13:01;;;;;;;14.23;10.00;;;13.00;99.90;;;;;;5089300;28;20042;-50
2021/10/31 02:15:28;;;;;;;13.40;9.32;;;13.00;99.90;;;;;;5090474;28;20481;-50
2021/10/31 02:17:55;;;;;;;13.20;9.73;;;13.00;99.90;;;;;;5089232;28;20028;-50
2021/10/31 02:20:22;;;;;;;17.30;9.90;;;13.00;99.90;;;;;;5079907;28;20055;-48
2021/10/31 02:23:01;;;;;;;15.60;10.68;;;13.10;99.90;;;;;;5081327;28;20031;-50
2021/10/31 02:25:28;;;;;;;13.85;9.38;;;13.10;99.90;;;;;;5090370;28;20174;-48
2021/10/31 02:27:53;;;;;;;16.30;9.63;;;13.00;99.90;;;;;;5089624;28;20062;-49
2021/10/31 02:30:20;;;;;;;15.77;9.57;;;12.90;99.90;;;;;;5088225;28;20028;-50
2021/10/31 02:32:46;;;;;;;15.63;9.93;;;12.90;99.90;;;;;;5089141;28;20115;-48
2021/10/31 02:35:12;;;;;;;16.38;10.77;;;12.90;99.90;;;;;;5090498;28;20026;-48
2021/10/31 02:37:39;;;;;;;14.73;10.43;;;12.90;99.90;;;;;;5089776;28;20390;-49
2021/10/31 02:40:06;;;;;;;16.88;10.18;;;12.90;99.90;;;;;;5090160;28;20024;-51
2021/10/31 02:42:32;;;;;;;15.27;10.10;;;12.80;99.90;;;;;;5089908;28;20441;-50
2021/10/31 02:44:58;;;;;;;13.25;9.13;;;12.80;99.90;;;;;;5090009;28;20032;-49
2021/10/31 02:47:37;;;;;;;13.25;10.60;;;12.70;99.90;;;;;;5088073;28;20067;-50
2021/10/31 02:50:04;;;;;;;14.30;10.38;;;12.70;99.90;;;;;;5081249;28;20084;-51
2021/10/31 02:52:49;;;;;;;14.55;10.30;;;12.80;99.90;;;;;;5074995;28;20466;-48
2021/10/31 02:55:26;;;;;;;16.52;10.88;;;12.80;99.90;;;;;;5078303;28;20577;-48
2021/10/31 02:57:58;;;;;;;13.55;10.43;;;12.80;99.90;;;;;;5088795;28;20031;-50
2021/10/31 03:00:26;;;;;;;14.65;10.38;;;12.80;99.90;;;;;;5089375;28;20020;-49
2021/10/31 03:02:52;;;;;;;15.95;11.43;;;12.90;99.90;;;;;;5089705;28;20556;-48
2021/10/31 03:05:18;;;;;;;15.73;10.43;;;12.90;99.90;;;;;;5088766;28;20104;-47
2021/10/31 03:07:43;;;;;;;13.98;10.25;;;13.00;99.90;;;;;;5088172;28;20039;-48
2021/10/31 03:10:14;;;;;;;14.07;10.35;;;13.00;99.90;;;;;;5088230;28;20024;-48
2021/10/31 03:12:39;;;;;;;13.30;9.55;;;12.90;99.90;;;;;;5089274;28;20051;-50
2021/10/31 03:15:05;;;;;;;18.00;12.45;;;12.90;99.90;;;;;;5089405;28;20035;-49
2021/10/31 03:17:32;;;;;;;16.67;11.45;;;12.90;99.90;;;;;;5086913;28;20525;-48
2021/10/31 03:19:58;;;;;;;15.43;10.80;;;12.90;99.90;;;;;;5058028;28;20021;-50
2021/10/31 03:22:23;;;;;;;16.23;10.88;;;12.90;99.90;;;;;;5068988;28;20044;-47
2021/10/31 03:24:49;;;;;;;13.95;10.50;;;12.90;99.90;;;;;;5080686;28;20035;-48
2021/10/31 03:27:14;;;;;;;16.90;11.95;;;12.80;99.90;;;;;;5089028;28;20098;-50
2021/10/31 03:29:40;;;;;;;17.02;11.82;;;12.80;99.90;;;;;;5079377;28;20021;-49
2021/10/31 03:32:05;;;;;;;17.20;11.23;;;12.80;99.90;;;;;;5059023;28;20028;-48
2021/10/31 03:34:31;;;;;;;16.15;11.63;;;12.80;99.90;;;;;;5059131;28;20021;-47
2021/10/31 03:36:56;;;;;;;18.65;11.38;;;12.90;99.90;;;;;;5062491;28;20482;-47
2021/10/31 03:39:22;;;;;;;14.52;11.30;;;12.90;99.90;;;;;;5062199;28;20083;-48
2021/10/31 03:41:47;;;;;;;16.92;11.93;;;12.90;99.90;;;;;;5048978;28;20027;-48
2021/10/31 03:44:15;;;;;;;16.75;12.20;;;12.90;99.90;;;;;;5048491;28;20052;-51
2021/10/31 03:46:41;;;;;;;13.43;10.52;;;12.80;99.90;;;;;;5057391;28;20036;-48
2021/10/31 03:49:06;;;;;;;17.77;11.00;;;12.90;99.90;;;;;;5056325;28;20037;-49
2021/10/31 03:51:32;;;;;;;20.20;13.57;;;12.90;99.90;;;;;;5056584;28;20025;-48
2021/10/31 03:53:57;;;;;;;15.13;12.45;;;13.00;99.90;;;;;;5064568;28;20031;-51
2021/10/31 03:56:23;;;;;;;16.85;12.38;;;13.00;99.90;;;;;;5057464;28;20017;-47
2021/10/31 03:58:48;;;;;;;14.38;10.80;;;13.00;99.90;;;;;;5056852;28;20044;-50
2021/10/31 04:01:14;;;;;;;17.15;12.50;;;12.90;99.90;;;;;;5058199;28;20033;-48
2021/10/31 04:03:39;;;;;;;15.35;11.73;;;13.00;99.90;;;;;;5058626;28;20063;-48
2021/10/31 04:06:05;;;;;;;15.10;10.48;;;13.00;99.90;;;;;;5059280;28;20124;-47
2021/10/31 04:08:30;;;;;;;13.95;9.88;;;12.90;99.90;;;;;;5065909;28;20056;-48
2021/10/31 04:10:56;;;;;;;15.18;10.45;;;12.90;99.90;;;;;;5059420;28;20066;-49
2021/10/31 04:13:21;;;;;;;16.02;11.35;;;13.00;99.90;;;;;;5059141;28;20079;-49
2021/10/31 04:15:47;;;;;;;16.55;10.65;;;13.00;99.90;;;;;;5065218;28;20031;-49
2021/10/31 04:18:13;;;;;;;14.93;11.38;;;12.90;99.90;;;;;;5063153;28;20027;-51
2021/10/31 04:20:39;;;;;;;14.05;10.18;;;13.00;99.90;;;;;;5053322;28;20024;-50
2021/10/31 04:23:04;;;;;;;14.52;10.80;;;13.00;99.90;;;;;;5056323;28;20381;-51
2021/10/31 04:25:30;;;;;;;16.58;11.68;;;13.00;99.90;;;;;;5084653;28;20070;-48
2021/10/31 04:27:55;;;;;;;17.30;12.05;;;13.00;99.90;;;;;;5065969;28;20029;-48
2021/10/31 04:30:21;;;;;;;15.18;11.35;;;13.00;99.90;;;;;;5058079;28;20070;-50
2021/10/31 04:32:47;;;;;;;15.35;11.18;;;13.00;99.90;;;;;;5056696;28;20075;-48
2021/10/31 04:35:12;;;;;;;16.35;10.80;;;13.00;99.90;;;;;;5056924;28;20112;-49
2021/10/31 04:37:41;;;;;;;17.27;12.73;;;13.00;99.90;;;;;;5057048;28;20455;-48
2021/10/31 04:40:10;;;;;;;16.02;11.48;;;13.00;99.90;;;;;;5057370;28;20441;-51
2021/10/31 04:42:37;;;;;;;20.52;12.90;;;13.00;99.90;;;;;;5056591;28;20044;-48
2021/10/31 04:45:03;;;;;;;16.05;11.70;;;13.10;99.90;;;;;;5059148;28;20032;-48
2021/10/31 04:47:29;;;;;;;19.27;13.15;;;13.00;99.90;;;;;;5056599;28;20033;-51
2021/10/31 04:49:54;;;;;;;17.50;11.68;;;13.00;99.90;;;;;;5058938;28;20043;-49
2021/10/31 04:52:20;;;;;;;18.48;12.18;;;13.00;99.90;;;;;;5058669;28;20029;-51
2021/10/31 04:54:45;;;;;;;16.70;11.90;;;12.90;99.90;;;;;;5064420;28;20017;-51
2021/10/31 04:57:11;;;;;;;17.88;12.27;;;12.90;99.90;;;;;;5056260;28;20073;-50
2021/10/31 04:59:36;;;;;;;21.08;12.77;;;13.00;99.90;;;;;;5058795;28;20570;-50
2021/10/31 05:02:02;;;;;;;16.55;12.35;;;12.90;99.90;;;;;;5066461;28;20025;-48
2021/10/31 05:04:27;;;;;;;15.88;12.05;;;12.90;99.90;;;;;;5068443;28;20458;-50
2021/10/31 05:06:53;;;;;;;17.58;12.43;;;13.00;99.90;;;;;;5067534;28;20025;-50
2021/10/31 05:09:18;;;;;;;18.20;12.35;;;13.00;99.90;;;;;;5067425;28;20591;-50
2021/10/31 05:11:45;;;;;;;16.75;11.98;;;13.00;99.90;;;;;;5071149;28;20025;-50
2021/10/31 05:14:10;;;;;;;18.30;13.27;;;13.00;99.90;;;;;;5071380;28;20044;-51
2021/10/31 05:16:37;;;;;;;16.65;12.32;;;13.00;99.90;;;;;;5071454;28;20109;-49
2021/10/31 05:19:08;;;;;;;23.85;13.73;;;12.90;99.90;;;;;;5070837;28;20013;-50
2021/10/31 05:21:34;;;;;;;23.60;14.15;;;12.90;99.90;;;;;;5069600;28;20099;-51
2021/10/31 05:23:59;;;;;;;16.88;11.60;;;12.90;99.90;;;;;;5082795;28;20024;-50
2021/10/31 05:26:25;;;;;;;16.17;12.38;;;12.80;99.90;;;;;;5091913;28;20258;-50
2021/10/31 05:28:51;;;;;;;15.20;10.68;;;12.80;99.90;;;;;;5091314;28;20414;-51
2021/10/31 05:31:17;;;;;;;18.48;12.18;;;12.80;99.90;;;;;;5091729;28;20105;-52
2021/10/31 05:33:44;;;;;;;19.85;13.20;;;12.70;99.90;;;;;;5091393;28;20103;-51
2021/10/31 05:36:10;;;;;;;16.17;12.50;;;12.70;99.90;;;;;;5090282;28;20028;-51
2021/10/31 05:38:36;;;;;;;20.00;14.38;;;12.60;99.90;;;;;;5090808;28;20095;-50
2021/10/31 05:41:03;;;;;;;23.80;15.40;;;12.60;99.90;;;;;;5091391;28;20111;-50
2021/10/31 05:43:29;;;;;;;21.15;14.73;;;12.50;99.90;;;;;;5091215;28;20028;-49
2021/10/31 05:45:56;;;;;;;23.48;14.98;;;12.50;99.90;;;;;;5091197;28;20054;-50
2021/10/31 05:48:22;;;;;;;20.30;14.63;;;12.50;99.90;;;;;;5090589;28;20074;-50
2021/10/31 05:50:47;;;;;;;20.45;14.05;;;12.40;99.90;;;;;;5091062;28;20024;-47
2021/10/31 05:53:13;;;;;;;18.05;13.20;;;12.30;99.90;;;;;;5080875;28;20024;-48
2021/10/31 05:55:39;;;;;;;21.73;12.65;;;12.30;99.90;;;;;;5088846;28;20047;-49
2021/10/31 05:58:04;;;;;;;18.67;12.77;;;12.20;99.90;;;;;;5089223;28;20095;-49
2021/10/31 06:00:30;;;;;;;20.33;13.52;;;12.20;99.90;;;;;;5089784;28;20484;-48
2021/10/31 06:02:55;;;;;;;17.75;12.13;;;12.20;99.90;;;;;;5090859;28;20081;-50
2021/10/31 06:05:21;;;;;;;17.38;12.77;;;12.10;99.90;;;;;;5090834;28;20394;-48
2021/10/31 06:07:46;;;;;;;18.00;12.18;;;12.10;99.90;;;;;;5089945;28;20103;-49
2021/10/31 06:10:12;;;;;;;18.23;12.07;;;12.10;99.90;;;;;;5066432;28;20028;-47
2021/10/31 06:12:46;;;;;;;17.85;11.88;;;12.10;99.90;;;;;;5051525;28;20452;-49
2021/10/31 06:15:21;;;;;;;17.25;12.15;;;12.00;99.90;;;;;;5065958;28;20021;-51
2021/10/31 06:17:47;;;;;;;21.88;12.80;;;12.00;99.90;;;;;;5055057;28;20051;-50
2021/10/31 06:20:14;;;;;;;18.27;13.32;;;12.00;99.90;;;;;;5057168;28;20486;-49
2021/10/31 06:22:40;;;;;;;18.92;12.88;;;12.00;99.90;;;;;;5061053;28;20044;-50
2021/10/31 06:25:07;;;;;;;19.08;13.13;;;12.00;99.90;;;;;;5061880;28;20483;-50
2021/10/31 06:27:33;;;;;;;16.77;12.35;;;12.00;99.90;;;;;;5063130;28;20033;-50
2021/10/31 06:29:59;;;;;;;16.83;12.25;;;12.10;99.90;;;;;;5070068;28;20059;-47
2021/10/31 06:32:25;;;;;;;19.95;12.82;;;12.00;99.90;;;;;;5069929;28;20024;-49
2021/10/31 06:34:51;;;;;;;21.25;13.05;;;12.10;99.90;;;;;;5070397;28;20535;-46
2021/10/31 06:37:17;;;;;;;21.13;13.35;;;12.10;99.90;;;;;;5059404;28;20024;-48
2021/10/31 06:39:42;;;;;;;16.88;11.85;;;12.10;99.90;;;;;;5066489;28;20682;-47
2021/10/31 06:42:08;;;;;;;17.67;12.25;;;12.20;99.90;;;;;;5070136;28;20020;-47
2021/10/31 06:44:33;;;;;;;18.60;11.98;;;12.20;99.90;;;;;;5068614;28;20104;-46
2021/10/31 06:46:59;;;;;;;18.70;12.40;;;12.20;99.90;;;;;;5069450;28;20023;-49
2021/10/31 06:49:25;;;;;;;16.80;11.82;;;12.20;99.90;;;;;;5069703;28;20525;-47
2021/10/31 06:51:50;;;;;;;21.58;12.18;;;12.30;99.90;;;;;;5067236;28;20048;-47
2021/10/31 06:54:15;;;;;;;16.85;12.90;;;12.30;99.90;;;;;;5081422;28;20097;-49
2021/10/31 06:56:42;;;;;;;22.30;12.57;;;12.40;99.90;;;;;;5089785;28;20107;-48
2021/10/31 06:59:08;;;;;;;18.50;13.02;;;12.50;99.90;;;;;;5087650;28;20024;-50
2021/10/31 07:01:33;;;;;;;15.35;10.70;;;12.50;99.90;;;;;;5089698;28;20081;-49
2021/10/31 07:03:59;;;;;;;18.02;12.02;;;12.50;99.90;;;;;;5089727;28;20058;-47
2021/10/31 07:06:24;;;;;;;16.83;11.68;;;12.50;99.90;;;;;;5089663;28;20020;-48
2021/10/31 07:08:50;;;;;;;15.15;11.05;;;12.50;99.90;;;;;;5087446;28;20031;-50
2021/10/31 07:11:15;;;;;;;17.83;12.13;;;12.50;99.90;;;;;;5072700;28;20039;-47
2021/10/31 07:13:41;;;;;;;14.30;10.77;;;12.60;99.90;;;;;;5069233;28;20028;-50
2021/10/31 07:16:07;;;;;;;19.92;11.63;;;12.60;99.90;;;;;;5069589;28;20211;-47
2021/10/31 07:18:33;;;;;;;15.07;10.63;;;12.60;99.90;;;;;;5068643;28;20390;-48
2021/10/31 07:20:58;;;;;;;17.05;11.73;;;12.50;99.90;;;;;;5060199;28;20036;-51
2021/10/31 07:23:24;;;;;;;16.23;10.98;;;12.50;99.90;;;;;;5063121;28;20048;-51
2021/10/31 07:25:50;;;;;;;15.15;11.07;;;12.50;99.90;;;;;;5062069;28;20481;-50
2021/10/31 07:28:16;;;;;;;17.00;12.20;;;12.50;99.90;;;;;;5058166;28;20389;-50
2021/10/31 07:30:41;;;;;;;15.65;11.82;;;12.50;99.90;;;;;;5060468;28;20493;-48
2021/10/31 07:33:07;;;;;;;14.38;10.73;;;12.50;99.90;;;;;;5057505;28;20497;-46
2021/10/31 07:35:32;;;;;;;14.10;10.70;;;12.50;99.90;;;;;;5070526;28;20032;-47
2021/10/31 07:37:58;;;;;;;15.18;10.85;;;12.50;99.90;;;;;;5069547;28;20082;-49
2021/10/31 07:40:24;;;;;;;13.80;10.40;;;12.60;99.90;;;;;;5069953;28;20028;-50
2021/10/31 07:42:50;;;;;;;12.70;9.75;;;12.70;99.90;;;;;;5069269;28;20695;-49
2021/10/31 07:45:16;;;;;;;15.85;10.75;;;12.70;99.90;;;;;;5068519;28;20028;-47
2021/10/31 07:47:41;;;;;;;14.35;10.00;;;12.80;99.90;;;;;;5068065;28;20086;-48
2021/10/31 07:50:08;;;;;;;12.52;9.13;;;12.90;99.90;;;;;;5067313;28;20152;-49
2021/10/31 07:52:35;;;;;;;10.90;8.57;;;12.90;99.90;;;;;;5060014;28;20022;-47
2021/10/31 07:55:04;;;;;;;9.40;7.57;;;13.00;99.90;;;;;;5080424;28;20070;-49
2021/10/31 07:57:30;;;;;;;8.98;7.18;;;13.10;99.90;;;;;;5088292;28;20400;-50
2021/10/31 07:59:56;;;;;;;11.10;7.43;;;13.10;99.90;;;;;;5087997;28;20532;-50
2021/10/31 08:02:21;;;;;;;9.48;7.35;;;13.20;99.90;;;;;;5087942;28;20028;-49
2021/10/31 08:04:47;;;;;;;10.60;8.23;;;13.20;99.90;;;;;;5087510;28;20073;-48
2021/10/31 08:07:13;;;;;;;12.05;8.35;;;13.20;99.90;;;;;;5087584;28;20024;-47
2021/10/31 08:09:39;;;;;;;14.25;8.48;;;13.20;99.90;;;;;;5087884;28;20099;-49
2021/10/31 08:12:06;;;;;;;15.38;9.00;;;13.20;99.90;;;;;;5088655;28;20028;-48
2021/10/31 08:14:31;;;;;;;10.80;8.93;;;13.20;99.90;;;;;;5088694;28;20020;-50
2021/10/31 08:16:57;;;;;;;10.88;9.48;;;13.30;99.90;;;;;;5088578;28;20026;-50
2021/10/31 08:19:25;;;;;;;11.98;8.32;;;13.30;99.90;;;;;;5088331;28;20378;-50
2021/10/31 08:21:52;;;;;;;10.48;7.68;;;13.30;99.90;;;;;;5083204;28;20016;-47
2021/10/31 08:24:18;;;;;;;12.40;8.35;;;13.40;99.90;;;;;;5071030;28;20017;-49
2021/10/31 08:26:44;;;;;;;9.32;8.02;;;13.40;99.90;;;;;;5085277;28;20020;-48
2021/10/31 08:29:11;;;;;;;10.38;8.00;;;13.40;99.90;;;;;;5087827;28;20035;-50
2021/10/31 08:31:40;;;;;;;13.15;9.40;;;13.50;99.90;;;;;;5088663;28;20049;-48
2021/10/31 08:34:07;;;;;;;9.85;8.52;;;13.60;99.90;;;;;;5088758;28;20020;-49
2021/10/31 08:36:33;;;;;;;9.77;7.93;;;13.60;99.90;;;;;;5088781;28;20547;-48
2021/10/31 08:38:59;;;;;;;10.38;8.10;;;13.70;99.90;;;;;;5087905;28;20362;-49
2021/10/31 08:41:26;;;;;;;10.40;8.27;;;13.70;99.90;;;;;;5079641;28;20036;-47
2021/10/31 08:43:53;;;;;;;12.05;8.60;;;13.70;99.90;;;;;;5068728;28;20039;-50
2021/10/31 08:46:19;;;;;;;10.05;8.05;;;13.70;99.90;;;;;;5087567;28;20400;-49
2021/10/31 08:48:46;;;;;;;12.45;8.98;;;13.80;99.90;;;;;;5088753;28;20024;-49
2021/10/31 08:51:11;;;;;;;11.20;8.98;;;13.80;99.90;;;;;;5091480;28;20016;-49
2021/10/31 08:53:37;;;;;;;11.57;8.13;;;13.90;99.90;;;;;;5074356;28;20038;-48
2021/10/31 08:56:05;;;;;;;13.32;7.97;;;13.90;99.90;;;;;;5083349;28;20094;-48
2021/10/31 08:58:30;;;;;;;9.68;7.25;;;14.00;99.90;;;;;;5091141;28;20591;-50
2021/10/31 09:00:56;;;;;;;10.57;7.57;;;14.10;99.90;;;;;;5091338;28;20028;-47
2021/10/31 09:03:21;;;;;;;10.20;7.68;;;14.20;99.90;;;;;;5091439;28;20028;-47
2021/10/31 09:05:47;;;;;;;7.63;6.38;;;14.30;99.90;;;;;;5091243;28;20035;-48
2021/10/31 09:08:12;;;;;;;9.40;6.78;;;14.50;99.90;;;;;;5089661;28;20026;-49
2021/10/31 09:10:39;;;;;;;7.32;5.72;;;14.60;99.90;;;;;;5091261;28;20572;-50
2021/10/31 09:13:05;;;;;;;6.88;5.70;;;14.80;99.90;;;;;;5091476;28;20046;-48
2021/10/31 09:15:31;;;;;;;8.80;6.15;;;15.00;99.90;;;;;;5089838;28;20016;-48
2021/10/31 09:17:58;;;;;;;6.60;5.05;;;15.20;99.90;;;;;;5091359;28;20091;-50
2021/10/31 09:20:25;;;;;;;7.32;5.38;;;15.50;99.90;;;;;;5090470;28;20017;-49
2021/10/31 09:22:54;;;;;;;6.80;5.03;;;15.70;99.90;;;;;;5077861;28;20266;-51
2021/10/31 09:25:21;;;;;;;7.15;5.07;;;16.10;99.90;;;;;;5082713;28;20073;-48
2021/10/31 09:27:47;;;;;;;5.25;4.32;;;16.40;99.90;;;;;;5089368;28;20525;-48
2021/10/31 09:30:12;;;;;;;8.57;4.82;;;16.70;99.90;;;;;;5090253;28;20028;-50
2021/10/31 09:32:44;;;;;;;6.30;4.25;;;17.20;99.90;;;;;;5088921;28;20020;-51
2021/10/31 09:35:10;;;;;;;6.60;5.07;;;17.90;99.90;;;;;;5090269;28;20043;-50
2021/10/31 09:37:35;;;;;;;6.50;4.20;;;19.50;99.90;;;;;;5090084;28;20453;-50
2021/10/31 09:40:03;;;;;;;4.70;4.15;;;20.30;99.90;;;;;;5090556;28;20522;-51
2021/10/31 09:42:29;;;;;;;4.70;3.42;;;21.30;98.20;;;;;;5089076;28;20081;-50
2021/10/31 09:44:54;;;;;;;6.30;4.00;;;21.70;95.60;;;;;;5058043;28;20040;-51
2021/10/31 09:47:22;;;;;;;7.25;4.13;;;21.70;94.20;;;;;;5050115;28;20040;-51
2021/10/31 09:49:47;;;;;;;4.30;3.70;;;21.90;93.90;;;;;;5049827;28;20029;-50
2021/10/31 09:52:13;;;;;;;6.10;3.63;;;22.00;93.30;;;;;;5049867;28;20029;-51
2021/10/31 09:54:38;;;;;;;4.50;3.90;;;21.50;92.60;;;;;;5076265;28;20493;-51
2021/10/31 09:57:04;;;;;;;7.75;3.47;;;21.50;93.80;;;;;;5088525;28;20028;-51
2021/10/31 09:59:30;;;;;;;4.72;3.33;;;21.80;92.80;;;;;;5089143;28;20020;-51
2021/10/31 10:04:30;;;;;;;4.90;3.15;;;22.80;91.40;;;;;;5090657;28;20082;-49
2021/10/31 10:06:59;;;;;;;4.03;2.70;;;22.60;90.20;;;;;;5085659;28;20028;-50
2021/10/31 10:09:26;;;;;;;4.47;2.85;;;22.90;88.80;;;;;;5089656;28;20546;-51
2021/10/31 10:11:52;;;;;;;4.65;2.47;;;22.60;90.00;;;;;;5089512;28;20028;-50
2021/10/31 10:14:37;;;;;;;4.47;2.58;;;22.80;89.00;;;;;;5089822;28;20062;-50
2021/10/31 10:17:06;;;;;;;3.80;2.50;;;24.00;85.20;;;;;;5089712;28;20254;-48
2021/10/31 10:19:34;;;;;;;3.20;2.33;;;24.70;80.70;;;;;;5090121;28;20023;-51
2021/10/31 10:22:09;;;;;;;2.03;1.83;;;24.80;79.30;;;;;;5088285;28;20032;-51
2021/10/31 10:24:53;;;;;;;4.38;1.92;;;24.70;78.40;;;;;;5075897;28;20048;-50
2021/10/31 10:27:21;;;;;;;2.20;1.73;;;24.60;75.30;;;;;;5090062;28;20383;-50
2021/10/31 10:29:47;;;;;;;3.08;1.80;;;23.50;79.40;;;;;;5090576;28;20073;-50
2021/10/31 10:32:16;;;;;;;2.47;1.70;;;23.50;80.10;;;;;;5090549;28;20375;-51
2021/10/31 10:34:48;;;;;;;2.35;2.15;;;23.90;80.00;;;;;;5090547;28;20016;-51
2021/10/31 10:37:21;;;;;;;2.17;1.90;;;22.60;81.10;;;;;;5089404;28;20386;-50
2021/10/31 10:39:51;;;;;;;3.08;2.10;;;22.30;82.70;;;;;;5090318;28;20032;-51
2021/10/31 10:42:32;;;;;;;3.10;1.92;;;22.50;83.60;;;;;;5089998;28;20050;-51
2021/10/31 10:45:09;;;;;;;2.58;2.13;;;22.50;83.40;;;;;;5090080;28;20027;-51
2021/10/31 10:47:47;;;;;;;2.42;1.83;;;22.30;83.00;;;;;;5089547;28;20167;-51
2021/10/31 10:50:18;;;;;;;4.43;2.30;;;22.20;84.80;;;;;;5089965;28;20229;-50
2021/10/31 10:52:44;;;;;;;;;;;21.60;85.20;;;;;;5078340;28;20511;-49
2021/10/31 10:55:12;;;;;;;3.22;2.47;;;20.90;87.90;;;;;;5081353;28;19942;-50
2021/10/31 10:57:42;;;;;;;2.92;2.30;;;20.40;90.50;;;;;;5089223;28;20028;-49
2021/10/31 11:00:17;;;;;;;3.78;2.70;;;20.30;91.40;;;;;;5089775;28;20024;-50
2021/10/31 11:02:44;;;;;;;4.90;2.50;;;19.60;92.60;;;;;;5089797;28;20067;-50
2021/10/31 11:05:11;;;;;;;2.50;2.30;;;19.70;92.80;;;;;;5089713;28;20028;-48
2021/10/31 11:07:40;;;;;;;4.75;2.50;;;20.40;92.70;;;;;;5088195;28;20035;-50
2021/10/31 11:10:11;;;;;;;2.63;2.42;;;20.80;91.50;;;;;;5066054;28;20078;-50
2021/10/31 11:12:39;;;;;;;3.72;2.60;;;21.10;90.70;;;;;;5070260;28;20028;-50
2021/10/31 11:15:09;;;;;;;3.70;2.22;;;21.30;90.40;;;;;;5084212;28;20469;-49
2021/10/31 11:17:39;;;;;;;3.08;2.53;;;21.60;88.90;;;;;;5086504;28;20069;-51
2021/10/31 11:20:08;;;;;;;4.00;2.13;;;21.20;89.70;;;;;;5085402;28;20135;-49
2021/10/31 11:22:34;;;;;;;3.70;2.45;;;20.50;91.20;;;;;;5077760;28;20025;-49
2021/10/31 11:25:01;;;;;;;3.85;2.30;;;20.50;91.30;;;;;;5078850;28;20020;-51
2021/10/31 11:27:28;;;;;;;2.25;2.05;;;20.30;91.90;;;;;;5086666;28;20024;-51
2021/10/31 11:29:56;;;;;;;2.30;2.10;;;20.00;92.30;;;;;;5086455;28;20190;-48
2021/10/31 11:32:24;;;;;;;4.35;2.05;;;19.80;93.00;;;;;;5086582;28;20073;-51
2021/10/31 11:34:54;;;;;;;2.65;2.33;;;19.50;93.20;;;;;;5061958;28;20031;-51
2021/10/31 11:37:24;;;;;;;2.75;2.00;;;19.10;94.60;;;;;;5062877;28;20063;-50
2021/10/31 11:39:55;;;;;;;4.97;2.10;;;18.90;95.30;;;;;;5085226;28;20024;-48
2021/10/31 11:42:21;;;;;;;4.47;2.33;;;18.90;95.60;;;;;;5087547;28;20043;-49
2021/10/31 11:45:10;;;;;;;3.42;2.40;;;18.90;95.90;;;;;;5086715;28;20032;-50
2021/10/31 11:47:37;;;;;;;4.10;2.40;;;18.70;96.10;;;;;;5086746;28;20020;-50
2021/10/31 11:50:08;;;;;;;5.18;2.58;;;18.60;96.80;;;;;;5063767;28;20025;-49
2021/10/31 11:53:00;;;;;;;4.10;2.45;;;18.60;97.10;;;;;;5068922;28;20387;-50
2021/10/31 11:55:25;;;;;;;3.60;2.13;;;18.70;97.20;;;;;;5073691;28;20080;-47
2021/10/31 11:57:59;;;;;;;4.82;2.72;;;18.90;97.60;;;;;;5063906;28;20025;-50
2021/10/31 12:00:25;;;;;;;3.38;2.55;;;19.00;97.40;;;;;;5068367;28;20049;-48
2021/10/31 12:02:58;;;;;;;2.75;2.33;;;19.10;97.10;;;;;;5050267;28;20087;-50
2021/10/31 12:05:39;;;;;;;4.72;3.15;;;19.00;97.20;;;;;;5046289;28;20032;-50
2021/10/31 12:08:09;;;;;;;3.00;2.58;;;19.10;97.10;;;;;;5045909;28;20084;-50
2021/10/31 12:10:37;;;;;;;6.30;2.67;;;19.00;97.40;;;;;;5061112;28;20128;-48
2021/10/31 12:13:44;;;;;;;2.50;2.25;;;19.10;97.20;;;;;;5050456;28;20021;-49
2021/10/31 12:16:13;;;;;;;3.67;2.33;;;19.10;97.00;;;;;;5055542;28;20386;-49
2021/10/31 12:18:49;;;;;;;2.95;2.42;;;19.10;97.10;;;;;;5057325;28;20090;-49
2021/10/31 12:21:30;;;;;;;6.43;2.88;;;19.00;97.90;;;;;;5056067;28;20453;-50
2021/10/31 12:24:14;;;;;;;2.88;2.17;;;18.80;97.60;;;;;;5068054;28;20024;-50
2021/10/31 12:26:54;;;;;;;2.90;2.28;;;18.60;98.40;;;;;;5086065;28;20043;-47
2021/10/31 12:29:22;;;;;;;2.47;2.07;;;18.70;98.20;;;;;;5079042;28;20107;-49
2021/10/31 12:32:13;;;;;;;3.35;2.50;;;18.60;98.50;;;;;;5061258;28;20316;-47
2021/10/31 12:34:45;;;;;;;3.55;2.35;;;18.50;99.00;;;;;;5078022;28;20036;-49
2021/10/31 12:37:28;;;;;;;4.22;2.00;;;18.50;99.10;;;;;;5084520;28;20017;-48
2021/10/31 12:39:57;;;;;;;6.55;2.63;;;18.40;99.60;;;;;;5084128;28;20036;-47
2021/10/31 12:42:46;;;;;;;4.18;3.10;;;18.50;99.70;;;;;;5086534;28;20028;-49
2021/10/31 12:45:16;;;;;;;4.63;2.95;;;18.40;99.70;;;;;;5068714;28;20028;-49